Time;durP1;ratioP1;P1;durP2;ratioP2;P2;SDS_P1;SDS_P2;PMS_P1;PMS_P2;Temp;Humidity;BMP_temperature;BMP_pressure;BME280_temperature;BME280_humidity;BME280_pressure;Samples;Min_cycle;Max_cycle;Signal;HPM_P1;HPM_P2
2023/12/13 08:52:32;;;;;;;2.40;1.10;;;;;;;6.19;100.00;94994.28;2089544;28;20552;-65
2023/12/13 08:53:34;;;;;;;3.33;1.40;;;;;;;6.20;100.00;94984.78;2088273;28;20196;-67
2023/12/13 08:54:36;;;;;;;2.83;1.17;;;;;;;6.32;100.00;94988.47;2086179;28;20192;-67
2023/12/13 08:55:38;;;;;;;3.28;1.00;;;;;;;6.36;100.00;94979.59;2085900;28;20660;-68
2023/12/13 08:56:41;;;;;;;3.42;0.82;;;;;;;6.46;100.00;94996.34;2083843;28;20189;-67
2023/12/13 09:14:10;;;;;;;3.63;1.02;;;;;;;6.41;100.00;94987.94;2076149;28;20580;-60
2023/12/13 09:15:11;;;;;;;1.75;0.90;;;;;;;6.47;100.00;94989.38;2073785;28;20554;-64
2023/12/13 09:16:13;;;;;;;1.63;0.82;;;;;;;6.55;100.00;94989.78;2069529;28;20198;-68
2023/12/13 09:17:14;;;;;;;4.22;1.30;;;;;;;6.52;100.00;94987.38;2071563;28;20784;-68
2023/12/13 09:18:16;;;;;;;3.85;0.95;;;;;;;6.54;100.00;94986.38;2072668;28;20208;-68
2023/12/13 10:13:02;;;;;;;3.60;1.83;;;;;;;6.36;100.00;95013.28;2106872;27;20531;-64
2023/12/13 10:14:03;;;;;;;2.60;1.20;;;;;;;6.53;100.00;95010.63;2110817;28;20218;-65
2023/12/13 10:15:12;;;;;;;5.93;1.40;;;;;;;6.82;100.00;95005.59;2110898;28;20649;-65
2023/12/13 10:16:15;;;;;;;2.45;1.42;;;;;;;7.27;100.00;95016.03;2103025;28;20662;-65
2023/12/13 10:17:22;;;;;;;3.95;1.55;;;;;;;7.66;100.00;95013.81;2103281;28;20199;-65
2023/12/13 10:18:24;;;;;;;5.40;1.00;;;;;;;8.60;100.00;95013.34;2094165;28;20210;-65
2023/12/13 10:19:25;;;;;;;1.95;1.10;;;;;;;9.66;98.47;95015.22;2103507;28;20203;-65
2023/12/13 10:20:29;;;;;;;5.05;1.52;;;;;;;11.18;90.22;95002.94;2102797;28;20199;-65
2023/12/13 10:21:35;;;;;;;4.43;1.13;;;;;;;11.25;86.18;95006.78;2102825;28;20208;-65
2023/12/13 10:22:38;;;;;;;2.38;1.20;;;;;;;10.80;85.32;95000.50;2103440;28;20274;-65
2023/12/13 10:23:43;;;;;;;5.53;1.10;;;;;;;10.59;87.25;95007.16;2101654;28;20271;-65
2023/12/13 10:24:45;;;;;;;2.20;1.15;;;;;;;10.30;86.76;95003.97;2103542;28;20263;-71
2023/12/13 10:25:47;;;;;;;4.13;1.55;;;;;;;9.95;87.37;95007.22;2103189;28;20278;-71
2023/12/13 10:26:48;;;;;;;2.45;1.10;;;;;;;9.66;89.67;94999.59;2103369;28;20877;-71
2023/12/13 10:27:53;;;;;;;1.70;0.90;;;;;;;10.86;86.47;95000.91;2103455;28;20199;-71
2023/12/13 10:28:55;;;;;;;7.93;1.48;;;;;;;11.70;82.06;94993.00;2078164;28;20223;-71
2023/12/13 10:29:56;;;;;;;3.80;1.25;;;;;;;11.30;83.05;94997.78;2103187;28;20206;-71
2023/12/13 10:30:58;;;;;;;3.17;1.38;;;;;;;10.68;85.15;94997.84;2100677;28;20303;-71
2023/12/13 10:32:00;;;;;;;5.38;2.20;;;;;;;10.14;86.46;94991.13;2099844;28;20206;-72
2023/12/13 10:33:02;;;;;;;2.90;1.45;;;;;;;9.61;88.96;94996.44;2102616;28;20486;-71
2023/12/13 10:34:03;;;;;;;6.18;1.15;;;;;;;9.44;90.04;94987.16;2102681;28;20761;-70
2023/12/13 10:35:05;;;;;;;3.88;1.20;;;;;;;9.30;90.82;95003.72;2103124;28;20236;-71
2023/12/13 10:36:10;;;;;;;3.65;1.20;;;;;;;9.31;91.27;95002.78;2103156;28;20224;-71
2023/12/13 10:37:13;;;;;;;3.13;1.55;;;;;;;9.35;91.34;95000.81;2102890;28;20192;-71
2023/12/13 10:38:15;;;;;;;3.90;1.92;;;;;;;9.32;91.74;94997.47;2102148;28;20776;-71
2023/12/13 10:39:19;;;;;;;5.40;1.40;;;;;;;9.41;92.28;95000.41;2102535;28;20308;-71
2023/12/13 10:40:21;;;;;;;2.88;1.20;;;;;;;10.43;89.33;94993.53;2103061;28;20195;-71
2023/12/13 10:41:27;;;;;;;3.42;1.23;;;;;;;10.24;88.87;94986.94;2102536;28;20210;-71
2023/12/13 10:42:29;;;;;;;4.80;1.30;;;;;;;10.41;88.69;95000.59;2103305;28;20196;-70
2023/12/13 10:43:31;;;;;;;4.57;1.00;;;;;;;10.67;86.54;94990.13;2102325;28;20868;-71
2023/12/13 10:44:35;;;;;;;1.92;0.80;;;;;;;10.29;87.66;94977.00;2103236;28;20695;-70
2023/12/13 10:45:54;;;;;;;1.45;0.88;;;;;;;10.42;86.47;94990.09;2102922;28;20193;-71
2023/12/13 10:46:59;;;;;;;4.22;1.27;;;;;;;11.93;83.31;94991.28;2103246;28;20195;-71
2023/12/13 10:48:04;;;;;;;4.43;1.10;;;;;;;13.51;77.93;94994.63;2103015;28;20628;-66
2023/12/13 10:49:06;;;;;;;2.97;1.38;;;;;;;13.51;77.93;94994.63;2099962;28;20216;-66
2023/12/13 10:50:09;;;;;;;2.60;1.20;;;;;;;15.01;71.70;94981.88;2102837;28;20197;-66
2023/12/13 10:51:13;;;;;;;2.63;0.98;;;;;;;15.29;69.31;94989.94;2103176;28;20199;-66
2023/12/13 10:52:15;;;;;;;3.10;1.20;;;;;;;15.58;67.92;94985.63;2101274;28;20203;-63
2023/12/13 10:53:18;;;;;;;2.70;1.50;;;;;;;16.14;67.03;94981.44;2103841;28;20268;-63
2023/12/13 10:54:20;;;;;;;4.10;1.40;;;;;;;16.44;65.83;94977.72;2104328;28;20267;-64
2023/12/13 10:55:23;;;;;;;2.92;1.10;;;;;;;16.05;65.93;94980.47;2104899;28;20214;-64
2023/12/13 10:56:25;;;;;;;1.60;0.80;;;;;;;13.51;71.96;94993.78;2103562;28;20199;-63
2023/12/13 10:57:27;;;;;;;2.20;1.00;;;;;;;12.29;77.50;94991.22;2103793;28;20731;-63
2023/12/13 10:58:29;;;;;;;4.57;1.30;;;;;;;-145.49;100.00;55703.94;2102115;28;20195;-63
2023/12/13 10:59:33;;;;;;;6.85;1.10;;;;;;;11.32;80.85;94995.88;2103063;28;20203;-63
2023/12/13 11:00:35;;;;;;;3.00;0.90;;;;;;;10.30;86.65;94996.13;2103449;28;20195;-63
2023/12/13 11:01:41;;;;;;;2.80;1.17;;;;;;;9.78;88.22;94983.13;2102665;28;20202;-63
2023/12/13 11:02:56;;;;;;;6.15;1.00;;;;;;;9.41;89.82;94984.78;2104135;28;20191;-62
2023/12/13 11:04:05;;;;;;;3.63;1.00;;;;;;;9.39;91.46;94991.84;2101511;28;20677;-65
2023/12/13 11:05:07;;;;;;;2.25;1.00;;;;;;;9.64;91.34;94991.06;2103352;28;20205;-65
2023/12/13 11:06:14;;;;;;;3.38;1.23;;;;;;;9.52;91.35;94997.91;2103951;28;20205;-65
2023/12/13 11:07:16;;;;;;;2.47;0.80;;;;;;;-145.49;100.00;55703.94;2103115;28;20205;-65
2023/12/13 11:08:23;;;;;;;2.00;1.13;;;;;;;-145.49;100.00;55703.94;2104837;28;20195;-65
2023/12/13 11:09:25;;;;;;;5.30;0.90;;;;;;;-145.49;100.00;55703.94;2102132;28;20221;-65
2023/12/13 11:10:27;;;;;;;3.70;1.10;;;;;;;-145.49;100.00;55703.94;2103332;28;20191;-64
2023/12/13 11:11:29;;;;;;;1.42;0.75;;;;;;;-145.49;100.00;55703.94;2102704;28;20203;-65
2023/12/13 11:12:30;;;;;;;3.88;1.10;;;;;;;-145.49;100.00;55703.94;2102802;28;20235;-65
2023/12/13 11:13:38;;;;;;;4.32;0.80;;;;;;;-145.49;100.00;55703.94;2100886;28;20229;-65
2023/12/13 11:14:40;;;;;;;2.70;1.13;;;;;;;-145.49;100.00;55703.94;2103274;28;20199;-65
2023/12/13 11:15:42;;;;;;;3.78;1.15;;;;;;;-145.49;100.00;55703.94;2103073;28;20209;-67
2023/12/13 11:16:50;;;;;;;2.78;1.00;;;;;;;-145.49;100.00;55703.94;2102935;28;20587;-65
2023/12/13 11:17:55;;;;;;;2.20;1.00;;;;;;;-145.49;100.00;55703.94;2102559;28;20483;-67
2023/12/13 11:18:57;;;;;;;1.60;0.80;;;;;;;-145.49;100.00;55703.94;2101134;28;20230;-65
2023/12/13 11:20:06;;;;;;;5.70;1.08;;;;;;;-145.49;100.00;55703.94;2103062;28;20201;-65
2023/12/13 11:21:07;;;;;;;1.80;0.80;;;;;;;-145.49;100.00;55703.94;2102722;28;20229;-65
2023/12/13 11:22:14;;;;;;;1.77;0.85;;;;;;;-145.49;100.00;55703.94;2103090;28;20546;-65
2023/12/13 11:23:16;;;;;;;2.28;0.80;;;;;;;-145.49;100.00;55703.94;2103092;28;20209;-65
2023/12/13 11:24:23;;;;;;;2.72;0.80;;;;;;;-145.49;100.00;55703.94;2097545;28;20223;-66
2023/12/13 11:25:35;;;;;;;1.45;0.75;;;;;;;-145.49;100.00;55703.94;2097012;28;20196;-65
2023/12/13 11:26:50;;;;;;;2.65;0.95;;;;;;;-145.49;100.00;55703.94;2105168;28;20638;-65
2023/12/13 11:27:53;;;;;;;2.40;1.10;;;;;;;-145.49;100.00;55703.94;2102685;28;20197;-62
2023/12/13 11:28:56;;;;;;;3.15;0.95;;;;;;;-145.49;100.00;55703.94;2095489;28;20354;-63
2023/12/13 11:29:58;;;;;;;3.25;0.90;;;;;;;-145.49;100.00;55703.94;2096180;28;20194;-63
2023/12/13 11:31:01;;;;;;;1.40;0.70;;;;;;;-145.49;100.00;55703.94;2097400;28;20292;-63
2023/12/13 11:32:04;;;;;;;2.47;1.13;;;;;;;-145.49;100.00;55703.94;2097032;28;20206;-63
2023/12/13 11:33:12;;;;;;;3.30;0.90;;;;;;;-145.49;100.00;55703.94;2097311;28;20733;-63
2023/12/13 11:34:14;;;;;;;2.47;0.73;;;;;;;-145.49;100.00;55703.94;2104334;28;20213;-62
2023/12/13 11:35:18;;;;;;;2.92;1.00;;;;;;;-145.49;100.00;55703.94;2104579;28;20335;-63
2023/12/13 11:36:21;;;;;;;2.88;1.20;;;;;;;-145.49;100.00;55703.94;2096878;28;20622;-63
2023/12/13 11:37:22;;;;;;;2.85;1.05;;;;;;;-145.49;100.00;55703.94;2097309;28;20209;-63
2023/12/13 11:38:24;;;;;;;3.35;1.08;;;;;;;-145.49;100.00;55703.94;2097156;28;20230;-62
2023/12/13 11:39:25;;;;;;;2.58;0.90;;;;;;;-145.49;100.00;55703.94;2096587;28;20221;-62
2023/12/13 11:40:27;;;;;;;4.20;0.80;;;;;;;-145.49;100.00;55703.94;2093299;28;20195;-63
2023/12/13 11:41:29;;;;;;;2.25;0.80;;;;;;;-145.49;100.00;55703.94;2092958;28;20656;-63
2023/12/13 11:42:30;;;;;;;2.63;1.00;;;;;;;-145.49;100.00;55703.94;2097236;28;20190;-63
2023/12/13 11:43:32;;;;;;;6.22;1.10;;;;;;;-145.49;100.00;55703.94;2090379;28;20192;-63
2023/12/13 11:44:36;;;;;;;3.83;1.42;;;;;;;-145.49;100.00;55703.94;2097048;28;20202;-62
2023/12/13 11:45:46;;;;;;;2.60;0.80;;;;;;;-145.49;100.00;55703.94;2096209;28;20198;-62
2023/12/13 11:47:03;;;;;;;2.58;0.93;;;;;;;-145.49;100.00;55703.94;2096923;28;20209;-63
2023/12/13 11:48:05;;;;;;;4.93;1.20;;;;;;;-145.49;100.00;55703.94;2096154;28;20249;-62
2023/12/13 11:49:07;;;;;;;5.07;1.10;;;;;;;-145.49;100.00;55703.94;2096304;28;20215;-63
2023/12/13 11:50:10;;;;;;;4.82;1.20;;;;;;;-145.49;100.00;55703.94;2096750;28;20195;-64
2023/12/13 11:51:12;;;;;;;2.92;1.00;;;;;;;-145.49;100.00;55703.94;2100525;28;20297;-62
2023/12/13 11:52:13;;;;;;;1.40;0.90;;;;;;;-145.49;100.00;55703.94;2101095;28;20754;-63
2023/12/13 11:53:15;;;;;;;4.95;1.50;;;;;;;-145.49;100.00;55703.94;2094838;28;20214;-63
2023/12/13 11:54:17;;;;;;;4.50;1.05;;;;;;;-145.49;100.00;55703.94;2091035;28;20235;-64
2023/12/13 11:55:22;;;;;;;3.25;1.35;;;;;;;-145.49;100.00;55703.94;2096770;28;20205;-63
2023/12/13 11:56:25;;;;;;;3.85;1.25;;;;;;;-145.49;100.00;55703.94;2095242;28;20197;-63
2023/12/13 11:57:26;;;;;;;2.92;1.10;;;;;;;-145.49;100.00;55703.94;2097224;28;20293;-68
2023/12/13 11:58:29;;;;;;;2.92;1.30;;;;;;;-145.49;100.00;55703.94;2096478;28;20247;-67
2023/12/13 11:59:31;;;;;;;3.38;1.05;;;;;;;-145.49;100.00;55703.94;2097082;28;20305;-68
2023/12/13 12:00:32;;;;;;;3.63;1.23;;;;;;;-145.49;100.00;55703.94;2097012;28;20594;-68
2023/12/13 12:01:33;;;;;;;3.88;0.93;;;;;;;-145.49;100.00;55703.94;2096635;28;20205;-68
2023/12/13 12:02:35;;;;;;;5.00;1.85;;;;;;;-145.49;100.00;55703.94;2096992;28;20197;-68
2023/12/13 12:03:37;;;;;;;3.05;1.20;;;;;;;-145.49;100.00;55703.94;2096244;28;20223;-68
2023/12/13 12:04:38;;;;;;;2.75;1.35;;;;;;;-145.49;100.00;55703.94;2097066;28;20660;-68
2023/12/13 12:05:41;;;;;;;3.95;1.30;;;;;;;-145.49;100.00;55703.94;2097040;28;20209;-68
2023/12/13 12:06:50;;;;;;;1.90;1.10;;;;;;;-145.49;100.00;55703.94;2098426;28;20592;-68
2023/12/13 12:07:59;;;;;;;2.28;1.25;;;;;;;-145.49;100.00;55703.94;2096766;28;21029;-68
2023/12/13 12:09:02;;;;;;;5.20;1.33;;;;;;;-145.49;100.00;55703.94;2096088;28;20359;-68
2023/12/13 12:10:04;;;;;;;5.97;1.50;;;;;;;-145.49;100.00;55703.94;2096683;28;20226;-68
2023/12/13 12:11:06;;;;;;;5.18;1.50;;;;;;;-145.49;100.00;55703.94;2095951;28;20205;-68
2023/12/13 12:12:11;;;;;;;2.58;1.05;;;;;;;-145.49;100.00;55703.94;2096669;28;20259;-68
2023/12/13 12:13:12;;;;;;;3.45;1.40;;;;;;;-145.49;100.00;55703.94;2097131;28;20229;-68
2023/12/13 12:14:16;;;;;;;4.30;1.20;;;;;;;-145.49;100.00;55703.94;2096284;28;20313;-69
2023/12/13 12:15:19;;;;;;;2.95;1.20;;;;;;;-145.49;100.00;55703.94;2097338;28;20243;-68
2023/12/13 12:16:21;;;;;;;2.03;1.20;;;;;;;-145.49;100.00;55703.94;2097261;28;20232;-68
2023/12/13 12:17:25;;;;;;;2.50;0.95;;;;;;;-145.49;100.00;55703.94;2096923;28;20291;-67
2023/12/13 12:18:27;;;;;;;2.63;1.10;;;;;;;-145.49;100.00;55703.94;2096827;28;20199;-67
2023/12/13 12:19:28;;;;;;;3.50;1.55;;;;;;;-145.49;100.00;55703.94;2096694;28;20227;-68
2023/12/13 12:20:30;;;;;;;3.55;1.33;;;;;;;-145.49;100.00;55703.94;2096937;28;20230;-68
2023/12/13 12:21:35;;;;;;;2.55;1.08;;;;;;;-145.49;100.00;55703.94;2096811;28;20206;-68
2023/12/13 12:22:37;;;;;;;3.58;1.10;;;;;;;-145.49;100.00;55703.94;2097059;28;20666;-68
2023/12/13 12:23:43;;;;;;;4.93;1.20;;;;;;;-145.49;100.00;55703.94;2096574;28;20231;-68
2023/12/13 12:24:47;;;;;;;1.98;1.02;;;;;;;-145.49;100.00;55703.94;2096870;28;20609;-67
2023/12/13 12:25:53;;;;;;;5.35;1.10;;;;;;;-145.49;100.00;55703.94;2097288;28;20203;-68
2023/12/13 12:27:07;;;;;;;3.47;1.02;;;;;;;-145.49;100.00;55703.94;2096740;28;20790;-68
2023/12/13 12:28:16;;;;;;;4.47;1.42;;;;;;;-145.49;100.00;55703.94;2096665;28;20199;-68
2023/12/13 12:29:17;;;;;;;2.15;1.33;;;;;;;-145.49;100.00;55703.94;2090983;28;20257;-68
2023/12/13 12:30:19;;;;;;;2.20;0.80;;;;;;;-145.49;100.00;55703.94;2096766;28;20204;-68
2023/12/13 12:31:21;;;;;;;1.60;0.93;;;;;;;-145.49;100.00;55703.94;2096903;28;20200;-68
2023/12/13 12:32:23;;;;;;;2.45;1.02;;;;;;;-145.49;100.00;55703.94;2096967;28;20203;-68
2023/12/13 12:33:24;;;;;;;1.50;0.80;;;;;;;-145.49;100.00;55703.94;2096684;28;20807;-68
2023/12/13 12:34:26;;;;;;;4.60;1.13;;;;;;;-145.49;100.00;55703.94;2096440;28;20284;-68
2023/12/13 12:35:28;;;;;;;1.85;1.05;;;;;;;-145.49;100.00;55703.94;2095441;28;20306;-68
2023/12/13 12:36:29;;;;;;;4.70;0.80;;;;;;;-145.49;100.00;55703.94;2096463;28;20294;-68
2023/12/13 12:37:31;;;;;;;2.38;1.00;;;;;;;-145.49;100.00;55703.94;2097402;28;20301;-69
2023/12/13 12:38:33;;;;;;;4.07;0.93;;;;;;;-145.49;100.00;55703.94;2095374;28;20592;-69
2023/12/13 12:39:35;;;;;;;3.10;0.93;;;;;;;-145.49;100.00;55703.94;2096899;28;20300;-69
2023/12/13 12:40:36;;;;;;;3.05;1.10;;;;;;;-145.49;100.00;55703.94;2096667;28;20192;-69
2023/12/13 12:41:38;;;;;;;3.60;0.98;;;;;;;-145.49;100.00;55703.94;2096176;28;20223;-69
2023/12/13 12:42:41;;;;;;;5.60;1.10;;;;;;;-145.49;100.00;55703.94;2096808;28;20192;-69
2023/12/13 12:43:46;;;;;;;3.05;1.13;;;;;;;-145.49;100.00;55703.94;2094316;28;20252;-69
2023/12/13 12:44:48;;;;;;;2.47;0.85;;;;;;;-145.49;100.00;55703.94;2096737;28;20191;-69
2023/12/13 12:45:49;;;;;;;2.20;0.93;;;;;;;-145.49;100.00;55703.94;2096395;28;20353;-69
2023/12/13 12:46:51;;;;;;;2.92;0.90;;;;;;;-145.49;100.00;55703.94;2096812;28;20210;-70
2023/12/13 12:47:52;;;;;;;3.67;0.82;;;;;;;-145.49;100.00;55703.94;2095870;28;20253;-70
2023/12/13 12:48:54;;;;;;;2.28;0.93;;;;;;;-145.49;100.00;55703.94;2096103;28;20283;-67
2023/12/13 12:49:56;;;;;;;2.63;0.80;;;;;;;-145.49;100.00;55703.94;2096590;28;20241;-70
2023/12/13 12:50:57;;;;;;;4.22;0.93;;;;;;;-145.49;100.00;55703.94;2096218;28;20640;-64
2023/12/13 12:51:59;;;;;;;4.90;1.10;;;;;;;-145.49;100.00;55703.94;2096594;28;20199;-64
2023/12/13 12:53:01;;;;;;;1.95;1.00;;;;;;;-145.49;100.00;55703.94;2096384;28;20199;-64
2023/12/13 12:54:02;;;;;;;4.13;1.60;;;;;;;-145.49;100.00;55703.94;2095495;28;20233;-64
2023/12/13 12:55:04;;;;;;;8.02;1.67;;;;;;;-145.49;100.00;55703.94;2097349;28;20198;-64
2023/12/13 12:56:07;;;;;;;3.63;1.20;;;;;;;-145.49;100.00;55703.94;2095818;28;20238;-64
2023/12/13 12:57:12;;;;;;;3.92;1.60;;;;;;;-145.49;100.00;55703.94;2096112;28;20206;-64
2023/12/13 12:58:14;;;;;;;5.20;1.65;;;;;;;-145.49;100.00;55703.94;2095765;28;20680;-64
2023/12/13 12:59:15;;;;;;;3.75;1.40;;;;;;;-145.49;100.00;55703.94;2096074;28;20304;-63
2023/12/13 13:00:20;;;;;;;3.95;1.85;;;;;;;-145.49;100.00;55703.94;2096882;28;20198;-70
2023/12/13 13:01:21;;;;;;;2.85;1.25;;;;;;;-145.49;100.00;55703.94;2096578;28;20205;-70
2023/12/13 13:02:23;;;;;;;3.40;1.00;;;;;;;-145.49;100.00;55703.94;2096837;28;20562;-70
2023/12/13 13:03:26;;;;;;;10.27;0.80;;;;;;;-145.49;100.00;55703.94;2096272;28;20209;-70
2023/12/13 13:04:27;;;;;;;4.50;1.08;;;;;;;-145.49;100.00;55703.94;2095725;28;20274;-70
2023/12/13 13:05:29;;;;;;;3.10;0.60;;;;;;;-145.49;100.00;55703.94;2096472;28;20189;-70
2023/12/13 13:06:32;;;;;;;2.00;0.63;;;;;;;-145.49;100.00;55703.94;2096727;28;20193;-70
2023/12/13 13:07:34;;;;;;;4.65;1.98;;;;;;;-145.49;100.00;55703.94;2099789;28;20203;-69
2023/12/13 13:08:39;;;;;;;2.58;0.90;;;;;;;-145.49;100.00;55703.94;2099344;28;20283;-69
2023/12/13 13:09:40;;;;;;;3.88;1.10;;;;;;;-145.49;100.00;55703.94;2096648;28;20647;-63
2023/12/13 13:10:42;;;;;;;3.03;1.15;;;;;;;-145.49;100.00;55703.94;2096696;28;20598;-62
2023/12/13 13:11:43;;;;;;;3.72;1.33;;;;;;;-145.49;100.00;55703.94;2096648;28;20226;-60
2023/12/13 13:12:45;;;;;;;3.40;1.10;;;;;;;-145.49;100.00;55703.94;2095521;28;20706;-61
2023/12/13 13:13:46;;;;;;;2.13;1.20;;;;;;;-145.49;100.00;55703.94;2096163;28;20196;-61
2023/12/13 13:14:49;;;;;;;3.40;1.00;;;;;;;-145.49;100.00;55703.94;2096376;28;20657;-61
2023/12/13 13:15:50;;;;;;;1.77;0.90;;;;;;;-145.49;100.00;55703.94;2095328;28;20223;-61
2023/12/13 13:16:52;;;;;;;2.53;0.90;;;;;;;-145.49;100.00;55703.94;2096582;28;20696;-61
